createdAt,value
2022-08-21T00:01:36.378Z,2.03
2022-08-21T00:04:10.760Z,1.30
2022-08-21T00:06:38.709Z,1.40
2022-08-21T00:09:07.453Z,1.67
2022-08-21T00:11:36.910Z,1.30
2022-08-21T00:14:05.497Z,1.30
2022-08-21T00:16:31.951Z,1.30
2022-08-21T00:18:58.481Z,1.52
2022-08-21T00:21:26.115Z,1.60
2022-08-21T00:23:52.930Z,1.30
2022-08-21T00:26:19.431Z,1.40
2022-08-21T00:28:47.087Z,1.65
2022-08-21T00:31:13.545Z,1.70
2022-08-21T00:33:39.947Z,1.13
2022-08-21T00:36:06.559Z,1.45
2022-08-21T00:38:32.986Z,1.40
2022-08-21T00:41:21.046Z,1.50
2022-08-21T00:43:48.249Z,1.20
2022-08-21T00:46:14.624Z,1.20
2022-08-21T00:48:40.993Z,1.20
2022-08-21T00:51:13.094Z,1.45
2022-08-21T00:53:45.862Z,1.63
2022-08-21T00:56:21.910Z,1.50
2022-08-21T00:58:48.866Z,1.17
2022-08-21T01:01:21.817Z,1.50
2022-08-21T01:03:48.757Z,1.40
2022-08-21T01:06:17.065Z,1.42
2022-08-21T01:08:46.896Z,1.33
2022-08-21T01:11:15.458Z,1.48
2022-08-21T01:13:46.940Z,1.63
2022-08-21T01:16:16.872Z,1.55
2022-08-21T01:18:44.781Z,1.50
2022-08-21T01:21:15.444Z,1.80
2022-08-21T01:23:45.248Z,1.30
2022-08-21T01:26:14.508Z,1.42
2022-08-21T01:28:55.220Z,1.85
2022-08-21T01:31:25.434Z,1.40
2022-08-21T01:33:53.407Z,1.50
2022-08-21T01:36:20.398Z,1.50
2022-08-21T01:38:48.178Z,1.52
2022-08-21T01:41:16.283Z,1.38
2022-08-21T01:43:43.754Z,1.83
2022-08-21T01:46:11.117Z,1.70
2022-08-21T01:48:38.034Z,1.45
2022-08-21T01:51:05.532Z,1.52
2022-08-21T01:53:34.814Z,1.52
2022-08-21T01:56:01.451Z,1.80
2022-08-21T01:58:27.860Z,2.10
2022-08-21T02:00:54.871Z,1.58
2022-08-21T02:03:35.215Z,1.50
2022-08-21T02:06:07.654Z,1.67
2022-08-21T02:08:34.828Z,1.75
2022-08-21T02:11:01.595Z,1.50
2022-08-21T02:13:28.073Z,1.65
2022-08-21T02:15:54.469Z,1.50
2022-08-21T02:18:20.875Z,1.63
2022-08-21T02:20:49.243Z,1.77
2022-08-21T02:23:27.436Z,2.05
2022-08-21T02:26:02.330Z,1.80
2022-08-21T02:28:29.433Z,1.98
2022-08-21T02:30:57.333Z,1.80
2022-08-21T02:33:24.818Z,1.80
2022-08-21T02:35:51.465Z,1.90
2022-08-21T02:38:21.692Z,1.75
2022-08-21T02:40:51.031Z,1.67
2022-08-21T02:43:18.924Z,1.50
2022-08-21T02:45:47.116Z,1.83
2022-08-21T02:48:17.915Z,1.58
2022-08-21T02:50:47.447Z,1.58
2022-08-21T02:53:17.146Z,2.03
2022-08-21T02:55:46.145Z,1.77
2022-08-21T02:58:13.713Z,2.22
2022-08-21T03:00:40.409Z,2.05
2022-08-21T03:03:07.411Z,2.10
2022-08-21T03:05:35.553Z,1.85
2022-08-21T03:08:03.461Z,1.75
2022-08-21T03:10:31.834Z,1.90
2022-08-21T03:12:58.539Z,1.63
2022-08-21T03:15:25.245Z,1.63
2022-08-21T03:17:52.166Z,1.98
2022-08-21T03:20:23.541Z,1.92
2022-08-21T03:22:53.036Z,1.92
2022-08-21T03:25:40.473Z,1.60
2022-08-21T03:28:12.969Z,1.70
2022-08-21T03:30:48.926Z,2.00
2022-08-21T03:33:16.134Z,1.90
2022-08-21T03:35:45.359Z,1.90
2022-08-21T04:05:15.311Z,2.22
2022-08-21T04:07:41.687Z,1.75
2022-08-21T04:10:08.684Z,2.17
2022-08-21T04:12:35.336Z,2.45
2022-08-21T04:15:02.829Z,2.65
2022-08-21T04:17:29.221Z,2.80
2022-08-21T04:19:55.961Z,2.42
2022-08-21T04:22:22.337Z,3.00
2022-08-21T04:24:48.800Z,3.20
2022-08-21T04:27:15.191Z,3.30
2022-08-21T04:29:41.567Z,3.58
2022-08-21T04:32:08.032Z,3.50
2022-08-21T04:34:34.462Z,3.42
2022-08-21T04:37:00.889Z,3.65
2022-08-21T04:39:29.743Z,3.20
2022-08-21T04:41:56.595Z,3.42
2022-08-21T04:44:23.027Z,3.90
2022-08-21T04:46:49.418Z,3.47
2022-08-21T04:49:15.808Z,3.60
2022-08-21T04:51:42.519Z,4.43
2022-08-21T04:54:18.015Z,5.05
2022-08-21T04:56:47.526Z,5.72
2022-08-21T04:59:22.032Z,5.80
2022-08-21T05:01:49.100Z,6.18
2022-08-21T05:04:18.618Z,5.45
2022-08-21T05:06:47.807Z,5.90
2022-08-21T05:09:17.288Z,5.55
2022-08-21T05:11:44.100Z,6.32
2022-08-21T05:14:12.484Z,5.75
2022-08-21T05:16:39.328Z,6.40
2022-08-21T05:19:06.891Z,6.80
2022-08-21T05:21:38.612Z,6.85
2022-08-21T05:24:05.136Z,6.40
2022-08-21T05:26:31.579Z,6.18
2022-08-21T05:28:58.830Z,6.68
2022-08-21T05:31:25.634Z,6.97
2022-08-21T05:33:52.172Z,7.10
2022-08-21T05:36:19.421Z,7.13
2022-08-21T05:38:45.867Z,6.93
2022-08-21T05:41:12.436Z,7.40
2022-08-21T05:43:38.872Z,7.32
2022-08-21T05:46:07.652Z,7.78
2022-08-21T05:48:35.239Z,8.13
2022-08-21T05:51:10.784Z,7.80
2022-08-21T05:53:38.810Z,7.80
2022-08-21T05:56:06.292Z,7.72
2022-08-21T05:58:33.935Z,8.55
2022-08-21T06:01:02.242Z,9.00
2022-08-21T06:03:35.290Z,8.82
2022-08-21T06:06:02.628Z,8.75
2022-08-21T06:08:29.484Z,9.38
2022-08-21T06:10:58.462Z,8.75
2022-08-21T06:13:26.147Z,9.30
2022-08-21T06:16:23.088Z,9.55
2022-08-21T06:18:49.921Z,10.00
2022-08-21T06:21:16.677Z,9.65
2022-08-21T06:23:43.859Z,9.45
2022-08-21T06:26:13.276Z,9.45
2022-08-21T06:28:41.149Z,9.57
2022-08-21T06:31:28.870Z,9.90
2022-08-21T06:33:55.566Z,9.25
2022-08-21T06:36:22.182Z,10.18
2022-08-21T06:38:50.773Z,9.38
2022-08-21T06:41:18.402Z,8.68
2022-08-21T06:43:51.451Z,8.57
2022-08-21T06:46:17.845Z,8.27
2022-08-21T06:48:44.248Z,8.10
2022-08-21T06:51:10.687Z,7.97
2022-08-21T06:53:37.145Z,8.55
2022-08-21T06:56:04.779Z,8.27
2022-08-21T06:58:31.839Z,6.63
2022-08-21T07:01:00.960Z,7.68
2022-08-21T07:03:37.561Z,7.05
2022-08-21T07:06:05.206Z,6.63
2022-08-21T07:08:31.744Z,7.00
2022-08-21T07:11:01.541Z,6.03
2022-08-21T07:13:28.673Z,6.95
2022-08-21T07:15:55.288Z,6.18
2022-08-21T07:18:22.205Z,6.00
2022-08-21T07:20:49.179Z,6.30
2022-08-21T07:23:25.790Z,6.15
2022-08-21T07:25:52.305Z,5.97
2022-08-21T07:28:19.125Z,5.32
2022-08-21T07:30:46.721Z,6.00
2022-08-21T07:33:13.175Z,5.88
2022-08-21T07:35:39.927Z,5.85
2022-08-21T07:38:06.885Z,5.90
2022-08-21T07:40:33.243Z,6.00
2022-08-21T07:42:59.755Z,5.50
2022-08-21T07:45:27.134Z,5.68
2022-08-21T07:47:57.279Z,5.15
2022-08-21T07:50:25.339Z,5.23
2022-08-21T07:52:52.112Z,5.60
2022-08-21T07:55:24.121Z,6.57
2022-08-21T07:57:51.199Z,5.53
2022-08-21T08:00:21.001Z,5.45
2022-08-21T08:02:51.268Z,5.22
2022-08-21T08:05:20.211Z,4.63
2022-08-21T08:07:46.748Z,4.97
2022-08-21T08:10:13.145Z,4.90
2022-08-21T08:12:42.026Z,5.20
2022-08-21T08:15:11.944Z,5.32
2022-08-21T08:17:39.604Z,4.97
2022-08-21T08:20:07.466Z,5.55
2022-08-21T16:11:52.085Z,1.45
2022-08-21T16:14:18.690Z,0.82
2022-08-21T16:16:46.054Z,0.90
2022-08-21T16:19:13.654Z,0.90
2022-08-21T16:21:40.191Z,1.13
2022-08-21T16:24:06.788Z,0.90
2022-08-21T16:26:33.962Z,0.82
2022-08-21T16:29:01.533Z,0.80
2022-08-21T16:31:27.955Z,1.23
2022-08-21T16:33:57.983Z,0.75
2022-08-21T16:36:26.242Z,0.77
2022-08-21T16:38:56.953Z,0.80
2022-08-21T16:41:27.112Z,1.20
2022-08-21T16:43:53.795Z,0.80
2022-08-21T16:46:21.938Z,1.05
2022-08-21T16:48:50.004Z,0.93
2022-08-21T16:51:17.315Z,0.70
2022-08-21T16:53:43.937Z,1.20
2022-08-21T16:56:13.740Z,1.20
2022-08-21T16:58:42.566Z,0.82
2022-08-21T17:01:12.488Z,0.65
2022-08-21T17:03:41.507Z,0.90
2022-08-21T17:06:10.025Z,1.13
2022-08-21T17:08:37.289Z,1.00
2022-08-21T17:11:37.051Z,1.10
2022-08-21T17:14:22.132Z,1.13
2022-08-21T17:16:52.605Z,0.90
2022-08-21T17:19:19.589Z,0.80
2022-08-21T17:21:46.711Z,0.60
2022-08-21T17:24:15.323Z,0.88
2022-08-21T17:26:43.858Z,0.90
2022-08-21T17:29:14.279Z,0.85
2022-08-21T17:31:42.703Z,1.10
2022-08-21T17:34:10.064Z,1.05
2022-08-21T17:36:36.488Z,1.10
2022-08-21T17:39:04.271Z,1.00
2022-08-21T17:41:30.992Z,1.00
2022-08-21T17:43:58.289Z,1.27
2022-08-21T17:46:30.343Z,1.00
2022-08-21T17:48:57.601Z,1.20
2022-08-21T17:51:24.282Z,1.00
2022-08-21T17:53:50.725Z,0.98
2022-08-21T17:56:18.957Z,1.10
2022-08-21T17:58:49.035Z,0.90
2022-08-21T18:01:16.069Z,1.07
2022-08-21T18:03:43.117Z,1.23
2022-08-21T18:06:12.317Z,1.27
2022-08-21T18:08:42.271Z,1.10
2022-08-21T18:11:10.495Z,0.95
2022-08-21T18:13:44.609Z,1.05
2022-08-21T18:16:19.086Z,1.13
2022-08-21T18:18:48.140Z,1.45
2022-08-21T18:21:15.325Z,1.17
2022-08-21T18:23:43.883Z,1.17
2022-08-21T18:26:14.416Z,1.30
2022-08-21T18:28:41.497Z,1.13
2022-08-21T18:31:10.658Z,0.98
2022-08-21T18:33:39.085Z,1.00
2022-08-21T18:36:07.961Z,1.20
2022-08-21T18:38:37.808Z,1.63
2022-08-21T18:41:10.294Z,1.40
2022-08-21T18:43:37.535Z,0.85
2022-08-21T18:46:05.033Z,1.15
2022-08-21T18:48:32.229Z,1.30
2022-08-21T18:50:59.509Z,1.38
2022-08-21T18:53:27.923Z,1.42
2022-08-21T18:55:56.965Z,1.23
2022-08-21T18:58:44.558Z,1.35
2022-08-21T19:01:11.481Z,0.98
2022-08-21T19:03:38.453Z,1.40
2022-08-21T19:06:05.766Z,1.20
2022-08-21T19:08:36.581Z,1.00
2022-08-21T19:11:06.422Z,1.10
2022-08-21T19:13:33.709Z,1.23
2022-08-21T19:16:03.764Z,1.20
2022-08-21T19:18:33.808Z,1.20
2022-08-21T19:21:02.662Z,1.15
2022-08-21T19:23:30.060Z,1.30
2022-08-21T19:28:52.135Z,1.27
2022-08-21T19:31:23.828Z,1.27
2022-08-21T19:33:58.965Z,1.50
2022-08-21T19:36:27.981Z,1.30
2022-08-21T19:38:54.370Z,1.48
2022-08-21T19:41:26.425Z,1.90
2022-08-21T19:43:56.497Z,1.25
2022-08-21T19:46:29.038Z,1.40
2022-08-21T19:48:56.291Z,1.48
2022-08-21T19:51:24.636Z,1.20
2022-08-21T19:54:04.431Z,1.15
2022-08-21T19:56:38.016Z,0.90
2022-08-21T19:59:09.436Z,1.65
2022-08-21T20:01:36.520Z,1.38
2022-08-21T20:04:11.761Z,1.33
2022-08-21T20:06:45.719Z,2.10
2022-08-21T20:09:14.197Z,1.83
2022-08-21T20:11:48.275Z,1.55
2022-08-21T20:14:18.779Z,1.52
2022-08-21T20:16:47.454Z,1.30
2022-08-21T20:19:14.632Z,1.55
2022-08-21T20:21:43.755Z,1.45
2022-08-21T20:24:12.249Z,1.50
2022-08-21T20:29:36.222Z,1.85
2022-08-21T20:32:07.927Z,1.60
2022-08-21T20:34:39.588Z,1.60
2022-08-21T20:37:06.193Z,1.30
2022-08-21T20:39:32.855Z,1.30
2022-08-21T20:41:59.572Z,1.85
2022-08-21T20:44:30.691Z,1.60
2022-08-21T20:46:59.348Z,1.52
2022-08-21T20:49:31.763Z,1.50
2022-08-21T20:51:59.001Z,1.40
2022-08-21T20:54:53.176Z,1.52
2022-08-21T20:57:29.633Z,1.70
2022-08-21T21:00:05.691Z,1.60
2022-08-21T21:02:32.130Z,1.75
2022-08-21T21:05:05.308Z,1.92
2022-08-21T21:07:41.350Z,1.38
2022-08-21T21:10:15.534Z,1.80
2022-08-21T21:12:52.829Z,1.77
2022-08-21T21:15:27.897Z,1.70
2022-08-21T21:18:17.869Z,1.60
2022-08-21T21:20:58.803Z,1.58
2022-08-21T21:23:48.463Z,1.75
2022-08-21T21:26:21.838Z,1.67
2022-08-21T21:28:59.711Z,1.60
2022-08-21T21:31:29.676Z,1.73
2022-08-21T21:33:59.047Z,2.03
2022-08-21T21:36:31.238Z,1.90
2022-08-21T21:39:27.320Z,1.90
2022-08-21T21:42:19.083Z,1.73
2022-08-21T21:45:12.493Z,1.85
2022-08-21T21:47:47.668Z,1.95
2022-08-21T21:50:18.934Z,1.98
2022-08-21T21:53:01.051Z,1.90
2022-08-21T21:55:49.472Z,2.20
2022-08-21T21:58:32.308Z,2.22
2022-08-21T22:01:25.136Z,2.28
2022-08-21T22:04:28.398Z,2.10
2022-08-21T22:07:09.530Z,2.20
2022-08-21T22:10:30.110Z,2.08
2022-08-21T22:16:12.943Z,2.30
2022-08-21T22:18:48.236Z,2.15
2022-08-21T22:21:27.664Z,1.60
2022-08-21T22:24:02.782Z,2.28
2022-08-21T22:26:45.954Z,2.08
2022-08-21T22:29:19.866Z,2.50
2022-08-21T22:32:08.456Z,2.22
2022-08-21T22:34:35.993Z,2.10
2022-08-21T22:37:06.559Z,2.30
2022-08-21T22:39:38.768Z,2.15
2022-08-21T22:42:25.892Z,1.80
2022-08-21T22:44:56.248Z,1.95
2022-08-21T22:47:29.986Z,2.00
2022-08-21T22:50:04.370Z,1.70
2022-08-21T22:52:44.694Z,1.80
2022-08-21T22:55:24.831Z,1.95
2022-08-21T22:58:13.613Z,1.55
2022-08-21T23:00:58.439Z,1.40
2022-08-21T23:03:33.432Z,1.50
2022-08-21T23:06:03.271Z,1.33
2022-08-21T23:08:39.871Z,1.50
2022-08-21T23:11:17.646Z,1.38
2022-08-21T23:13:46.190Z,2.33
2022-08-21T23:16:54.055Z,1.60
2022-08-21T23:20:04.872Z,1.40
2022-08-21T23:23:12.339Z,1.40
2022-08-21T23:25:51.575Z,1.55
2022-08-21T23:28:36.264Z,1.45
2022-08-21T23:31:32.390Z,1.90
2022-08-21T23:34:28.606Z,1.48
2022-08-21T23:37:25.616Z,1.55
2022-08-21T23:40:11.975Z,1.33
2022-08-21T23:42:57.347Z,1.20
2022-08-21T23:45:38.962Z,1.30
2022-08-21T23:48:29.337Z,1.52
2022-08-21T23:51:33.775Z,1.65
2022-08-21T23:54:15.390Z,1.48
2022-08-21T23:57:15.286Z,1.90
